createdAt,value
2023-03-24T00:46:30.550Z,3.20
2023-03-24T00:49:18.081Z,4.00
2023-03-24T00:52:10.522Z,5.82
2023-03-24T00:54:58.240Z,3.28
2023-03-24T00:57:50.596Z,3.40
2023-03-24T01:46:29.837Z,4.10
2023-03-24T01:49:16.155Z,5.23
2023-03-24T01:52:04.682Z,4.60
2023-03-24T01:54:57.375Z,3.63
2023-03-24T01:57:47.684Z,3.00
2023-03-24T02:46:15.041Z,3.28
2023-03-24T02:49:51.666Z,3.07
2023-03-24T02:52:56.087Z,3.78
2023-03-24T02:55:51.624Z,3.38
2023-03-24T02:58:43.042Z,5.72
2023-03-24T03:47:13.408Z,4.03
2023-03-24T03:50:03.518Z,4.07
2023-03-24T03:52:50.397Z,3.72
2023-03-24T03:55:36.207Z,2.47
2023-03-24T03:58:23.442Z,2.65
2023-03-24T04:47:12.493Z,4.35
2023-03-24T04:50:11.379Z,3.45
2023-03-24T04:52:57.818Z,3.93
2023-03-24T04:55:49.224Z,3.15
2023-03-24T04:58:38.682Z,2.40
2023-03-24T05:47:22.106Z,4.63
2023-03-24T05:50:08.080Z,3.03
2023-03-24T05:52:53.508Z,4.68
2023-03-24T05:55:58.802Z,2.43
2023-03-24T05:59:11.610Z,4.28
2023-03-24T06:02:26.620Z,3.25
2023-03-24T06:05:20.626Z,5.82
2023-03-24T06:08:06.396Z,4.00
2023-03-24T06:11:00.461Z,3.53
2023-03-24T06:13:46.070Z,3.67
2023-03-24T06:16:34.036Z,2.47
2023-03-24T06:19:22.633Z,3.65
2023-03-24T06:22:31.870Z,4.35
2023-03-24T06:25:20.705Z,5.03
2023-03-24T06:28:34.449Z,4.18
2023-03-24T06:31:25.233Z,4.05
2023-03-24T06:34:12.105Z,4.90
2023-03-24T06:36:58.012Z,6.60
2023-03-24T06:39:43.275Z,3.50
2023-03-24T06:42:30.702Z,5.75
2023-03-24T06:45:16.622Z,4.45
2023-03-24T06:48:04.048Z,3.58
2023-03-24T06:50:49.344Z,6.45
2023-03-24T06:53:35.941Z,5.57
2023-03-24T06:56:21.630Z,6.25
2023-03-24T06:59:17.702Z,5.30
2023-03-24T07:02:03.256Z,5.10
2023-03-24T07:04:55.085Z,14.25
2023-03-24T07:10:50.710Z,5.68
2023-03-24T07:13:36.815Z,9.48
2023-03-24T07:16:23.660Z,5.25
2023-03-24T07:19:18.595Z,9.10
2023-03-24T07:22:09.813Z,4.03
2023-03-24T07:25:15.242Z,8.95
2023-03-24T07:28:08.454Z,7.95
2023-03-24T07:30:55.457Z,7.30
2023-03-24T07:33:42.127Z,5.07
2023-03-24T07:36:27.561Z,7.10
2023-03-24T07:39:13.992Z,6.68
2023-03-24T07:41:59.229Z,5.35
2023-03-24T07:45:12.211Z,6.28
2023-03-24T07:48:01.850Z,6.72
2023-03-24T07:50:49.701Z,4.17
2023-03-24T07:53:58.738Z,4.20
2023-03-24T07:56:52.744Z,4.90
2023-03-24T07:59:38.099Z,7.07
2023-03-24T08:02:34.204Z,5.18
2023-03-24T08:05:39.215Z,8.00
2023-03-24T08:08:44.654Z,5.10
2023-03-24T08:11:30.158Z,5.43
2023-03-24T08:14:15.706Z,6.22
2023-03-24T08:17:01.364Z,5.03
2023-03-24T08:20:00.017Z,4.10
2023-03-24T08:22:50.125Z,6.97
2023-03-24T08:25:36.549Z,4.82
2023-03-24T08:28:21.987Z,5.32
2023-03-24T08:31:08.621Z,5.78
2023-03-24T08:33:55.200Z,6.03
2023-03-24T08:36:42.045Z,5.78
2023-03-24T08:42:49.984Z,6.70
2023-03-24T08:45:39.881Z,6.63
2023-03-24T08:48:26.287Z,5.33
2023-03-24T08:51:15.856Z,4.82
2023-03-24T08:54:01.597Z,5.05
2023-03-24T09:00:04.718Z,4.85
2023-03-24T09:03:05.482Z,4.87
2023-03-24T09:05:58.220Z,4.45
2023-03-24T09:08:49.798Z,5.57
2023-03-24T09:11:39.083Z,6.10
2023-03-24T09:14:26.574Z,4.95
2023-03-24T09:17:15.701Z,7.63
2023-03-24T09:20:14.115Z,4.63
2023-03-24T09:23:03.212Z,5.80
2023-03-24T09:25:53.799Z,3.83
2023-03-24T09:28:41.456Z,4.07
2023-03-24T09:31:30.649Z,5.13
2023-03-24T09:34:16.215Z,4.32
2023-03-24T09:37:01.990Z,4.43
2023-03-24T09:39:47.955Z,4.32
2023-03-24T09:42:38.345Z,4.47
2023-03-24T09:45:27.030Z,4.07
2023-03-24T09:48:19.196Z,5.20
2023-03-24T09:51:07.039Z,4.38
2023-03-24T09:53:52.314Z,4.57
2023-03-24T09:56:39.647Z,5.95
2023-03-24T09:59:40.846Z,4.77
2023-03-24T10:02:30.874Z,5.35
2023-03-24T10:05:22.042Z,4.55
2023-03-24T10:08:37.598Z,5.10
2023-03-24T10:11:43.485Z,5.22
2023-03-24T10:18:12.520Z,4.18
2023-03-24T10:21:07.774Z,5.05
2023-03-24T10:24:02.416Z,4.38
2023-03-24T10:27:21.622Z,4.10
2023-03-24T10:30:16.272Z,4.10
2023-03-24T10:33:02.227Z,7.35
2023-03-24T10:36:02.027Z,4.70
2023-03-24T10:38:48.592Z,5.40
2023-03-24T10:41:37.304Z,4.18
2023-03-24T10:44:23.417Z,4.03
2023-03-24T10:47:13.533Z,4.10
2023-03-24T10:50:12.495Z,3.53
2023-03-24T10:52:59.945Z,3.35
2023-03-24T10:55:47.946Z,4.22
2023-03-24T10:58:40.258Z,4.13
2023-03-24T11:01:30.381Z,3.95
2023-03-24T11:04:19.789Z,4.28
2023-03-24T11:07:12.377Z,4.10
2023-03-24T11:10:03.006Z,6.40
2023-03-24T11:12:54.897Z,6.43
2023-03-24T11:15:53.847Z,5.75
2023-03-24T11:18:55.542Z,4.63
2023-03-24T11:21:43.167Z,4.30
2023-03-24T11:24:29.913Z,3.58
2023-03-24T11:27:16.963Z,3.43
2023-03-24T11:30:02.157Z,5.00
2023-03-24T11:32:48.494Z,3.95
2023-03-24T11:35:41.684Z,4.65
2023-03-24T11:38:41.381Z,4.32
2023-03-24T11:41:27.833Z,5.07
2023-03-24T11:44:19.062Z,5.10
2023-03-24T11:47:12.487Z,3.42
2023-03-24T11:50:11.928Z,5.57
2023-03-24T11:53:05.431Z,4.72
2023-03-24T11:56:06.401Z,4.27
2023-03-24T11:59:01.710Z,5.25
2023-03-24T12:02:12.685Z,4.00
2023-03-24T12:05:13.145Z,3.65
2023-03-24T12:08:09.027Z,3.97
2023-03-24T12:11:04.284Z,3.90
2023-03-24T12:13:51.496Z,3.88
2023-03-24T12:17:17.341Z,3.47
2023-03-24T12:20:36.791Z,3.63
2023-03-24T12:23:47.394Z,4.25
2023-03-24T12:26:34.472Z,4.07
2023-03-24T12:29:34.034Z,5.68
2023-03-24T12:32:39.499Z,5.03
2023-03-24T12:35:47.080Z,3.50
2023-03-24T12:38:50.854Z,3.88
2023-03-24T12:41:51.650Z,4.03
2023-03-24T12:45:00.086Z,3.58
2023-03-24T12:48:13.263Z,3.70
2023-03-24T12:51:07.406Z,7.70
2023-03-24T12:53:53.672Z,3.40
2023-03-24T12:56:47.320Z,4.27
2023-03-24T12:59:41.594Z,2.95
2023-03-24T13:02:38.425Z,2.80
2023-03-24T13:05:31.674Z,3.35
2023-03-24T13:08:29.572Z,3.95
2023-03-24T13:11:31.871Z,3.27
2023-03-24T13:14:26.442Z,3.95
2023-03-24T13:17:21.344Z,4.75
2023-03-24T13:20:13.462Z,4.82
2023-03-24T13:23:20.230Z,3.33
2023-03-24T13:26:31.108Z,4.83
2023-03-24T13:29:49.067Z,4.90
2023-03-24T13:32:42.957Z,3.63
2023-03-24T13:35:48.246Z,4.07
2023-03-24T13:38:42.343Z,11.63
2023-03-24T13:41:35.277Z,6.47
2023-03-24T13:44:24.365Z,3.38
2023-03-24T13:47:15.916Z,4.45
2023-03-24T13:50:04.750Z,6.35
2023-03-24T13:52:52.986Z,7.38
2023-03-24T13:55:39.628Z,3.30
2023-03-24T13:58:28.395Z,3.72
2023-03-24T14:01:31.531Z,5.72
2023-03-24T14:04:25.970Z,2.42
2023-03-24T14:07:32.458Z,5.50
2023-03-24T14:10:20.706Z,4.10
2023-03-24T14:13:12.390Z,4.72
2023-03-24T14:15:58.684Z,4.53
2023-03-24T14:18:44.286Z,4.07
2023-03-24T14:21:31.566Z,3.80
2023-03-24T14:24:24.643Z,3.57
2023-03-24T14:27:35.059Z,8.60
2023-03-24T14:30:22.152Z,8.20
2023-03-24T14:33:24.470Z,5.18
2023-03-24T14:36:14.370Z,12.68
2023-03-24T14:39:41.463Z,4.17
2023-03-24T14:42:36.172Z,4.90
2023-03-24T14:45:43.652Z,3.55
2023-03-24T14:48:33.810Z,3.92
2023-03-24T14:51:36.838Z,4.93
2023-03-24T14:54:27.405Z,3.33
2023-03-24T14:57:22.405Z,5.82
2023-03-24T15:00:30.462Z,4.32
2023-03-24T15:03:37.968Z,4.25
2023-03-24T15:06:24.006Z,5.88
2023-03-24T15:09:20.423Z,7.97
2023-03-24T15:12:11.492Z,5.10
2023-03-24T15:14:59.593Z,3.17
2023-03-24T15:17:46.980Z,5.22
2023-03-24T15:20:35.798Z,6.65
2023-03-24T15:23:28.262Z,3.93
2023-03-24T15:26:14.145Z,4.53
2023-03-24T15:29:06.249Z,4.13
2023-03-24T15:31:51.942Z,3.78
2023-03-24T15:34:40.390Z,6.38
2023-03-24T15:37:33.903Z,3.50
2023-03-24T15:40:25.960Z,4.80
2023-03-24T15:43:22.119Z,4.50
2023-03-24T15:46:22.531Z,4.00
2023-03-24T15:49:19.647Z,5.45
2023-03-24T15:52:29.060Z,3.57
2023-03-24T15:55:28.774Z,4.10
2023-03-24T15:58:27.872Z,4.30
2023-03-24T16:01:17.551Z,3.50
2023-03-24T16:04:11.874Z,3.03
2023-03-24T16:06:57.768Z,3.43
2023-03-24T16:09:44.975Z,4.53
2023-03-24T16:12:34.762Z,3.15
2023-03-24T16:15:20.446Z,3.22
2023-03-24T16:18:06.537Z,4.07
2023-03-24T16:20:52.432Z,4.37
2023-03-24T16:23:37.863Z,3.33
2023-03-24T16:26:27.426Z,4.35
2023-03-24T16:29:17.498Z,3.50
2023-03-24T16:32:03.224Z,4.28
2023-03-24T16:34:48.724Z,4.80
2023-03-24T16:37:35.154Z,4.07
2023-03-24T16:40:35.996Z,3.67
2023-03-24T16:43:22.004Z,3.53
2023-03-24T16:46:29.947Z,3.40
2023-03-24T16:49:17.987Z,3.00
2023-03-24T16:52:03.994Z,3.22
2023-03-24T16:54:50.529Z,3.00
2023-03-24T16:57:37.448Z,2.92
2023-03-24T17:00:23.830Z,3.15
2023-03-24T17:03:10.536Z,3.37
2023-03-24T17:05:57.992Z,3.28
2023-03-24T17:08:45.039Z,2.83
2023-03-24T17:11:39.583Z,4.85
2023-03-24T17:14:25.257Z,3.38
2023-03-24T17:17:11.536Z,5.27
2023-03-24T17:19:59.864Z,3.05
2023-03-24T17:22:47.840Z,4.32
2023-03-24T17:25:33.857Z,2.70
2023-03-24T17:28:19.186Z,3.03
2023-03-24T17:31:05.714Z,3.20
2023-03-24T17:33:51.022Z,3.13
2023-03-24T17:36:36.540Z,3.08
2023-03-24T17:39:22.169Z,6.65
2023-03-24T17:42:07.497Z,4.05
2023-03-24T17:44:53.437Z,3.30
2023-03-24T17:47:39.230Z,4.25
2023-03-24T17:50:25.452Z,3.40
2023-03-24T17:53:13.739Z,4.00
2023-03-24T17:56:05.536Z,2.65
2023-03-24T17:58:54.837Z,3.57
2023-03-24T18:01:40.503Z,3.20
2023-03-24T18:04:26.315Z,3.67
2023-03-24T18:07:11.723Z,2.75
2023-03-24T18:09:56.852Z,3.45
2023-03-24T18:12:43.309Z,4.90
2023-03-24T18:15:30.595Z,3.05
2023-03-24T18:18:16.208Z,6.07
2023-03-24T18:21:02.592Z,7.60
2023-03-24T18:23:48.670Z,6.43
2023-03-24T18:26:33.931Z,7.43
2023-03-24T18:29:22.084Z,7.90
2023-03-24T18:32:07.635Z,5.45
2023-03-24T18:34:53.245Z,6.57
2023-03-24T18:37:38.747Z,5.80
2023-03-24T18:40:24.247Z,6.17
2023-03-24T18:43:09.699Z,6.97
2023-03-24T18:45:55.270Z,7.20
2023-03-24T18:48:42.600Z,6.20
2023-03-24T18:51:28.290Z,6.80
2023-03-24T18:54:13.749Z,6.40
2023-03-24T18:56:59.693Z,6.72
2023-03-24T18:59:44.812Z,6.93
2023-03-24T19:02:30.508Z,7.30
2023-03-24T19:05:16.221Z,5.50
2023-03-24T19:08:06.987Z,5.30
2023-03-24T19:10:55.261Z,4.88
2023-03-24T19:13:42.009Z,7.57
2023-03-24T19:16:28.907Z,7.88
2023-03-24T19:19:19.332Z,7.15
2023-03-24T19:22:09.028Z,7.10
2023-03-24T19:24:55.681Z,6.05
2023-03-24T19:27:44.549Z,6.20
2023-03-24T19:30:30.173Z,11.80
2023-03-24T19:33:15.608Z,8.02
2023-03-24T19:36:01.222Z,8.97
2023-03-24T19:38:46.820Z,10.57
2023-03-24T19:41:32.206Z,12.98
2023-03-24T19:44:17.812Z,12.68
2023-03-24T19:47:03.515Z,10.02
2023-03-24T19:49:49.768Z,12.03
2023-03-24T19:52:35.728Z,12.85
2023-03-24T19:55:21.383Z,13.05
2023-03-24T19:58:06.937Z,13.65
2023-03-24T20:00:52.548Z,15.63
2023-03-24T20:03:37.932Z,12.57
2023-03-24T20:06:23.125Z,12.32
2023-03-24T20:09:08.615Z,13.05
2023-03-24T20:11:54.028Z,15.52
2023-03-24T20:14:39.539Z,15.80
2023-03-24T20:17:28.458Z,16.43
2023-03-24T20:20:14.716Z,15.80
2023-03-24T20:23:00.498Z,15.70
2023-03-24T20:25:45.783Z,12.30
2023-03-24T20:28:31.180Z,14.52
2023-03-24T20:31:17.409Z,12.03
2023-03-24T20:34:03.866Z,17.75
2023-03-24T20:36:49.098Z,13.82
2023-03-24T20:39:34.579Z,14.65
2023-03-24T20:42:23.398Z,13.60
2023-03-24T20:45:11.043Z,15.73
2023-03-24T20:47:56.732Z,13.25
2023-03-24T20:50:43.400Z,15.35
2023-03-24T20:53:29.790Z,15.27
2023-03-24T20:56:16.687Z,18.10
2023-03-24T20:59:06.430Z,18.10
2023-03-24T21:01:51.763Z,19.73
2023-03-24T21:04:37.269Z,19.25
2023-03-24T21:07:22.614Z,22.92
2023-03-24T21:10:08.257Z,17.98
2023-03-24T21:12:54.853Z,17.20
2023-03-24T21:15:45.774Z,16.48
2023-03-24T21:18:32.328Z,17.10
2023-03-24T21:21:17.732Z,17.08
2023-03-24T21:24:04.406Z,16.48
2023-03-24T21:26:50.861Z,20.10
2023-03-24T21:29:36.672Z,13.57
2023-03-24T21:32:21.884Z,16.92
2023-03-24T21:35:09.086Z,18.23
2023-03-24T21:37:54.661Z,14.02
2023-03-24T21:40:40.011Z,15.83
2023-03-24T21:43:27.141Z,14.65
2023-03-24T21:46:20.914Z,16.00
2023-03-24T21:49:06.305Z,16.60
2023-03-24T21:51:55.046Z,18.48
2023-03-24T21:54:40.121Z,15.17
2023-03-24T21:57:25.277Z,16.88
2023-03-24T22:00:15.627Z,15.07
2023-03-24T22:03:02.171Z,15.57
2023-03-24T22:05:47.968Z,14.60
2023-03-24T22:08:33.660Z,13.97
2023-03-24T22:11:24.921Z,15.73
2023-03-24T22:14:10.533Z,17.95
2023-03-24T22:16:55.832Z,13.93
2023-03-24T22:19:41.534Z,14.98
2023-03-24T22:22:27.055Z,14.93
2023-03-24T22:25:15.583Z,14.10
2023-03-24T22:28:00.787Z,12.30
2023-03-24T22:30:46.569Z,12.40
2023-03-24T22:33:32.089Z,12.93
2023-03-24T22:36:18.758Z,13.47
2023-03-24T22:39:04.450Z,14.98
2023-03-24T22:41:50.209Z,15.77
2023-03-24T22:44:36.008Z,15.05
2023-03-24T22:47:26.635Z,13.50
2023-03-24T22:50:12.320Z,12.67
2023-03-24T22:52:57.690Z,13.43
2023-03-24T22:55:44.628Z,15.07
2023-03-24T22:58:30.266Z,12.38
2023-03-24T23:01:16.367Z,13.98
2023-03-24T23:04:01.708Z,14.67
2023-03-24T23:06:46.962Z,13.05
2023-03-24T23:09:32.275Z,16.27
2023-03-24T23:12:18.676Z,12.02
2023-03-24T23:15:07.858Z,13.45
2023-03-24T23:17:53.252Z,13.27
2023-03-24T23:20:38.585Z,12.27
2023-03-24T23:23:23.789Z,13.85
2023-03-24T23:26:26.195Z,12.32
2023-03-24T23:29:13.948Z,11.27
2023-03-24T23:31:59.470Z,10.93
2023-03-24T23:34:48.532Z,14.35
2023-03-24T23:37:36.023Z,11.93
2023-03-24T23:40:26.691Z,13.38
2023-03-24T23:43:12.990Z,12.32
2023-03-24T23:45:58.524Z,12.27
2023-03-24T23:48:43.856Z,12.80
2023-03-24T23:51:30.988Z,11.80
2023-03-24T23:54:17.728Z,12.93
2023-03-24T23:57:03.341Z,11.38
2023-03-24T23:59:49.537Z,12.30
